Patcona II — WDC2170 — position and weather

sailwx.info

Track history (hours):
 
Tides and Currents Weather Stations Pressure Air Temp Water Temp Dewpoint Dewpoint Depression Visibility Wind Speed Wind Dir Waves Ship Positions

Patcona II

Owner: Connolly-Pacific Co, long beach, CA. More information available from US FCC via Universal Licensing System and Coast Guard Vessel Documentation Center.

Last reported at 2017-May-23 18:24 UTC. Time now 2017-May-23 18:33 UTC.
Position N 33°46' W 118°13'.

Length 25 m; draft 3.5 m.

Type: Towing. MMSI: 366988960.

Date/timePositionNaut miles runAvg speedWind from/ knotsBaromVisibWave heightAir tempDewpointWater temp
2017-May-23 18:24N 33°46' W 118°13'0 0.0
2017-May-23 18:00N 33°46' W 118°13'0 0.0
2017-May-23 17:24N 33°46' W 118°13'0 0.0
2017-May-23 17:00N 33°46' W 118°13'0 0.0
2017-May-23 16:30N 33°46' W 118°13'0 0.0
2017-May-23 15:54N 33°46' W 118°13'0 0.0
2017-May-23 15:30N 33°46' W 118°13'0 0.0
2017-May-23 14:48N 33°46' W 118°13'0 0.0
2017-May-23 14:30N 33°46' W 118°13'0 0.0
2017-May-23 13:27N 33°46' W 118°13'0 0.0
2017-May-23 13:00N 33°46' W 118°13'0 0.0
2017-May-23 12:30N 33°46' W 118°13'0 0.0
2017-May-23 11:42N 33°46' W 118°13'0 0.0
2017-May-23 11:30N 33°46' W 118°13'0 0.0
2017-May-23 10:57N 33°46' W 118°13'0 0.0
2017-May-23 10:27N 33°46' W 118°13'0 0.0
2017-May-23 10:00N 33°46' W 118°13'0 0.0
2017-May-23 09:30N 33°46' W 118°13'0 0.0
2017-May-23 09:00N 33°46' W 118°13'0 0.0
2017-May-23 08:30N 33°46' W 118°13'119637424.8
2017-May-23 08:28N 29°44' W 095°17'11962552.7
2017-May-23 08:00N 33°46' W 118°13'1196130525.3
2017-May-23 07:59N 29°44' W 095°15'11962439.0
2017-May-23 07:30N 33°46' W 118°13'0 0.0
2017-May-23 07:00N 33°46' W 118°13'0 0.0
2017-May-23 06:18N 33°46' W 118°13'0 0.0
2017-May-23 06:00N 33°46' W 118°13'0 0.0
2017-May-23 05:24N 33°46' W 118°13'0 0.0
2017-May-23 05:00N 33°46' W 118°13'0 0.0
2017-May-23 04:30N 33°46' W 118°13'0 0.0
2017-May-23 03:36N 33°46' W 118°13'0 0.0
2017-May-23 03:30N 33°46' W 118°13'0 0.0
2017-May-23 02:57N 33°46' W 118°13'0 0.0
2017-May-23 02:30N 33°46' W 118°13'0 0.0
2017-May-23 02:00N 33°46' W 118°13'0 0.0
2017-May-23 00:36N 33°46' W 118°13'0 0.0
2017-May-23 00:30N 33°46' W 118°13'0 0.0
2017-May-23 00:00N 33°46' W 118°13'0 0.0
2017-May-22 23:30N 33°46' W 118°13'0 0.0
2017-May-22 23:00N 33°46' W 118°13'11973871.9
2017-May-22 22:41N 29°43' W 095°15'1 5.2
2017-May-22 22:30N 29°44' W 095°14'1198616057.7
2017-May-22 22:30N 33°46' W 118°13'0 0.0
2017-May-22 22:00N 33°46' W 118°13'1200102845.6
2017-May-22 21:59N 29°45' W 095°11'1 2.8
2017-May-22 21:30N 29°44' W 095°09'120120790.1
2017-May-22 21:27N 33°46' W 118°13'12032702.2
2017-May-22 21:00N 29°44' W 095°07'1203227976.3
2017-May-22 21:00N 33°46' W 118°13'12042422.0
2017-May-22 20:30N 29°46' W 095°05'1204481707.0
2017-May-22 20:30N 33°46' W 118°13'1 1.3
2017-May-22 20:01N 33°45' W 118°13'120215617.2
2017-May-22 19:56N 29°44' W 095°09'12032468.1
2017-May-22 19:27N 33°43' W 118°15'1 2.4
2017-May-22 18:59N 33°43' W 118°14'0 0.1
2017-May-22 18:30N 33°43' W 118°14'1 2.2
2017-May-22 18:00N 33°43' W 118°15'0 0.2
2017-May-22 17:19N 33°43' W 118°15'1 2.9
2017-May-22 17:00N 33°43' W 118°14'2 3.3
2017-May-22 16:24N 33°45' W 118°13'1 3.4
2017-May-22 16:00N 33°46' W 118°13'0 0.1
2017-May-22 15:27N 33°46' W 118°13'0 0.0
2017-May-22 14:57N 33°46' W 118°13'0 0.1
2017-May-22 14:00N 33°46' W 118°13'119744869.3
2017-May-22 13:59N 29°44' W 095°15'3 5.5
2017-May-22 13:25N 29°44' W 095°12'3 7.0
2017-May-22 13:00N 29°44' W 095°09'3 0.8
2017-May-22 08:51N 29°47' W 095°06'0 0.1
2017-May-22 08:30N 29°47' W 095°06'1 2.5
2017-May-22 07:59N 29°45' W 095°06'1 1.3
2017-May-22 07:30N 29°46' W 095°06'0 0.2
2017-May-22 06:52N 29°46' W 095°06'0 0.0
2017-May-22 06:20N 29°46' W 095°06'0 0.0
2017-May-22 04:59N 29°46' W 095°06'0 0.0
2017-May-22 03:46N 29°46' W 095°06'0 0.0
2017-May-22 03:25N 29°46' W 095°06'0 0.0
2017-May-22 02:58N 29°46' W 095°06'0 0.0
2017-May-22 02:20N 29°46' W 095°06'0 0.0
2017-May-22 01:57N 29°46' W 095°06'0 0.0
2017-May-22 01:30N 29°46' W 095°06'0 0.0
2017-May-22 00:59N 29°46' W 095°06'0 0.2
2017-May-22 00:25N 29°46' W 095°06'1 1.4
2017-May-22 00:00N 29°45' W 095°06'1 2.2
2017-May-21 23:30N 29°44' W 095°06'3 4.5
2017-May-21 22:48N 29°45' W 095°10'1 0.6
2017-May-21 21:52N 29°45' W 095°11'0 0.0
2017-May-21 21:30N 29°45' W 095°11'0 0.0
2017-May-21 20:34N 29°45' W 095°11'0 0.0
2017-May-21 20:28N 29°45' W 095°11'0 0.0
2017-May-21 19:16N 29°45' W 095°11'0 0.0
2017-May-21 17:22N 29°45' W 095°11'0 0.0
2017-May-21 14:00N 29°45' W 095°11'0 0.0
2017-May-21 13:30N 29°45' W 095°11'0 1.0
2017-May-21 13:00N 29°45' W 095°10'4 0.2
2017-May-20 19:34N 29°47' W 095°06'0 1.8
2017-May-20 19:30N 29°46' W 095°06'2 4.2
2017-May-20 19:00N 29°45' W 095°04'2 3.3
2017-May-20 18:29N 29°44' W 095°03'0 0.0
2017-May-20 17:59N 29°44' W 095°03'0 0.0
2017-May-20 17:29N 29°44' W 095°03'0 0.0
2017-May-20 16:59N 29°44' W 095°03'0 0.0
2017-May-20 16:29N 29°44' W 095°03'0 0.0
2017-May-20 15:59N 29°44' W 095°03'0 0.0
2017-May-20 15:29N 29°44' W 095°03'0 0.0
2017-May-20 14:59N 29°44' W 095°03'0 0.0
2017-May-20 14:29N 29°44' W 095°03'0 0.0
2017-May-20 13:00N 29°44' W 095°03'0 0.0
2017-May-20 12:30N 29°44' W 095°03'0 0.0
2017-May-20 12:00N 29°44' W 095°03'0 0.0
2017-May-20 11:30N 29°44' W 095°03'0 0.0
2017-May-20 11:00N 29°44' W 095°03'0 0.0
2017-May-20 10:30N 29°44' W 095°03'0 0.0
2017-May-20 10:00N 29°44' W 095°03'0 0.0
2017-May-20 09:30N 29°44' W 095°03'0 0.0
2017-May-20 09:00N 29°44' W 095°03'0 0.0
2017-May-20 08:26N 29°44' W 095°03'0 0.2
2017-May-20 08:00N 29°44' W 095°03'4 4.0
2017-May-20 07:04N 29°47' W 095°06'0 2.1
2017-May-20 07:00N 29°46' W 095°06'2 3.5
2017-May-20 06:30N 29°45' W 095°06'1204713.7
2017-May-20 04:49N 33°46' W 118°13'1 1.4
2017-May-20 04:13N 33°45' W 118°13'0 0.8
2017-May-20 03:58N 33°45' W 118°14'2 3.6
2017-May-20 03:30N 33°44' W 118°12'3 4.1
2017-May-20 02:47N 33°41' W 118°10'1 3.4
2017-May-20 02:31N 33°40' W 118°10'3 6.0
2017-May-20 02:00N 33°37' W 118°12'3 6.3
2017-May-20 01:31N 33°34' W 118°13'3 6.2
2017-May-20 01:01N 33°31' W 118°14'3 6.2
2017-May-20 00:30N 33°28' W 118°15'3 6.2
2017-May-20 00:01N 33°25' W 118°16'3 6.3
2017-May-19 23:30N 33°22' W 118°17'3 6.0
2017-May-19 23:01N 33°19' W 118°18'0 0.6
2017-May-19 22:28N 33°19' W 118°18'0 0.0
2017-May-19 21:28N 33°19' W 118°18'0 0.0
2017-May-19 20:04N 33°19' W 118°18'0 0.0
2017-May-19 19:58N 33°19' W 118°18'0 0.0
2017-May-19 19:28N 33°19' W 118°18'0 0.0
2017-May-19 18:58N 33°19' W 118°18'12059209.3
2017-May-19 18:50N 29°44' W 095°07'12053258.9
2017-May-19 18:28N 33°19' W 118°18'120213520.9
2017-May-19 18:22N 29°45' W 095°10'12023135.3
2017-May-19 17:59N 33°19' W 118°18'1200480049.4
2017-May-19 17:59N 29°43' W 095°13'12002471.2
2017-May-19 17:30N 33°19' W 118°18'3 5.7
2017-May-19 17:00N 33°22' W 118°17'4 7.7
2017-May-19 16:30N 33°26' W 118°16'4 7.6
2017-May-19 15:59N 33°30' W 118°16'4 7.7
2017-May-19 15:30N 33°33' W 118°15'4 7.8
2017-May-19 14:59N 33°37' W 118°14'7 6.9
2017-May-19 14:00N 33°44' W 118°11'3 5.1
2017-May-19 13:31N 33°46' W 118°13'0 0.6
2017-May-19 12:58N 33°46' W 118°13'1196232.0
2017-May-19 07:49N 29°44' W 095°16'0 0.3
2017-May-19 07:30N 29°44' W 095°16'3 5.3
2017-May-19 06:53N 29°44' W 095°12'2 6.3
2017-May-19 06:29N 29°44' W 095°09'4 6.5
2017-May-19 05:56N 29°46' W 095°05'1 0.0
2017-May-18 06:38N 29°45' W 095°06'1 0.3
2017-May-18 01:20N 29°46' W 095°06'0 0.0
2017-May-18 00:59N 29°46' W 095°06'0 0.0
2017-May-18 00:31N 29°46' W 095°06'0 0.0
2017-May-17 17:17N 29°46' W 095°06'0 0.0
2017-May-17 01:08N 29°46' W 095°06'0 1.3
2017-May-17 01:00N 29°47' W 095°06'2 3.2
2017-May-17 00:26N 29°45' W 095°06'5 0.6
2017-May-16 16:10N 29°45' W 095°11'1 3.7
2017-May-16 16:01N 29°45' W 095°11'3 6.6
2017-May-16 15:30N 29°44' W 095°07'3 5.3
2017-May-16 15:01N 29°46' W 095°04'3 6.1
2017-May-16 14:30N 29°44' W 095°02'6 6.4
2017-May-16 13:30N 29°38' W 094°58'2 4.7
2017-May-16 13:00N 29°37' W 094°60'0 0.4
2017-May-16 12:30N 29°37' W 095°00'0 0.0
2017-May-16 12:00N 29°37' W 095°00'0 0.0
2017-May-16 11:30N 29°37' W 095°00'0 0.0
2017-May-16 11:00N 29°37' W 095°00'0 0.0
2017-May-16 10:30N 29°37' W 095°00'0 0.0
2017-May-16 10:00N 29°37' W 095°00'0 0.0
2017-May-16 09:31N 29°37' W 095°00'0 0.0
2017-May-16 09:00N 29°37' W 095°00'0 0.0
2017-May-16 08:30N 29°37' W 095°00'0 0.0
2017-May-16 08:00N 29°37' W 095°00'0 0.0
2017-May-16 07:30N 29°37' W 095°00'0 0.0
2017-May-16 07:00N 29°37' W 095°00'0 0.0
2017-May-16 06:30N 29°37' W 095°00'0 0.0
2017-May-16 06:00N 29°37' W 095°00'0 0.0
2017-May-16 05:30N 29°37' W 095°00'0 0.0
2017-May-16 05:00N 29°37' W 095°00'0 0.0
2017-May-16 04:30N 29°37' W 095°00'0 0.0
2017-May-16 04:00N 29°37' W 095°00'0 0.0
2017-May-16 03:31N 29°37' W 095°00'0 0.0
2017-May-16 03:01N 29°37' W 095°00'0 0.0
2017-May-16 02:30N 29°37' W 095°00'0 0.0
2017-May-16 02:00N 29°37' W 095°00'0 0.0
2017-May-16 01:31N 29°37' W 095°00'0 0.0
2017-May-16 01:00N 29°37' W 095°00'0 0.0
2017-May-16 00:30N 29°37' W 095°00'0 0.0
2017-May-16 00:00N 29°37' W 095°00'0 0.0
2017-May-15 23:30N 29°37' W 095°00'0 0.0
2017-May-15 23:01N 29°37' W 095°00'0 0.0
2017-May-15 22:30N 29°37' W 095°00'0 0.0
2017-May-15 22:00N 29°37' W 095°00'0 0.0
2017-May-15 21:30N 29°37' W 095°00'0 0.0
2017-May-15 21:01N 29°37' W 095°00'0 0.0
2017-May-15 20:30N 29°37' W 095°00'0 0.0
2017-May-15 20:01N 29°37' W 095°00'0 0.0
2017-May-15 19:30N 29°37' W 095°00'1 1.8
2017-May-15 19:00N 29°37' W 095°01'2 4.1
2017-May-15 18:31N 29°37' W 094°59'3 4.3
2017-May-15 17:54N 29°39' W 094°58'2 5.6
2017-May-15 17:30N 29°41' W 094°59'7 5.5
2017-May-15 16:15N 29°46' W 095°06'1 0.4
2017-May-15 13:59N 29°47' W 095°06'0 0.0
2017-May-15 08:34N 29°47' W 095°06'0 0.2
2017-May-15 08:30N 29°47' W 095°06'1 1.3
2017-May-15 08:00N 29°46' W 095°06'2 4.3
2017-May-15 07:30N 29°45' W 095°04'1 1.0
2017-May-15 06:14N 29°44' W 095°03'0 0.0
2017-May-15 05:53N 29°44' W 095°03'0 0.0
2017-May-15 05:14N 29°44' W 095°03'0 0.0
2017-May-14 16:32N 29°44' W 095°03'1 2.5
2017-May-14 16:06N 29°45' W 095°04'2 6.2
2017-May-14 15:49N 29°46' W 095°05'1204349.4
2017-May-14 12:22N 33°46' W 118°13'0 0.0
2017-May-14 11:58N 33°46' W 118°13'0 0.0
2017-May-14 11:22N 33°46' W 118°13'0 0.0
2017-May-14 10:58N 33°46' W 118°13'0 0.0
2017-May-14 10:28N 33°46' W 118°13'0 0.0
2017-May-14 09:58N 33°46' W 118°13'0 0.0
2017-May-14 09:28N 33°46' W 118°13'0 0.0
2017-May-14 08:58N 33°46' W 118°13'0 0.0
2017-May-14 08:28N 33°46' W 118°13'0 0.0
2017-May-14 07:58N 33°46' W 118°13'0 0.0
2017-May-14 07:28N 33°46' W 118°13'0 0.0
2017-May-14 06:58N 33°46' W 118°13'0 0.0
2017-May-14 06:19N 33°46' W 118°13'0 0.0
2017-May-14 05:58N 33°46' W 118°13'0 0.0
2017-May-14 05:28N 33°46' W 118°13'0 0.0
2017-May-14 04:58N 33°46' W 118°13'0 0.0
2017-May-14 04:25N 33°46' W 118°13'0 0.0
2017-May-14 03:58N 33°46' W 118°13'0 0.0
2017-May-14 03:28N 33°46' W 118°13'0 0.0
2017-May-14 02:58N 33°46' W 118°13'0 0.0
2017-May-14 02:28N 33°46' W 118°13'0 0.0
2017-May-14 01:58N 33°46' W 118°13'0 0.0
2017-May-14 01:28N 33°46' W 118°13'0 0.0
2017-May-14 00:58N 33°46' W 118°13'0 0.0
2017-May-14 00:28N 33°46' W 118°13'0 0.0
2017-May-13 23:58N 33°46' W 118°13'0 0.0
2017-May-13 23:28N 33°46' W 118°13'0 0.0
2017-May-13 22:58N 33°46' W 118°13'0 0.0
2017-May-13 21:40N 33°46' W 118°13'0 0.0
2017-May-13 21:22N 33°46' W 118°13'120323672.5
2017-May-13 21:19N 29°47' W 095°06'12033427.3
2017-May-13 20:58N 33°46' W 118°13'1204123854.3
2017-May-13 20:57N 29°46' W 095°05'12042456.0
2017-May-13 20:28N 33°46' W 118°13'12041401.2
2017-May-13 19:36N 29°45' W 095°06'0 0.1
2017-May-13 19:30N 29°45' W 095°06'0 0.0
2017-May-13 18:42N 29°45' W 095°06'  
Track history (hours):
 
Tides and Currents Weather Stations Pressure Air Temp Water Temp Dewpoint Dewpoint Depression Visibility Wind Speed Wind Dir Waves Ship Positions

Patcona II

Owner: Connolly-Pacific Co, long beach, CA. More information available from US FCC via Universal Licensing System and Coast Guard Vessel Documentation Center.

Last reported at 2017-May-23 18:24 UTC. Time now 2017-May-23 18:33 UTC.
Position N 33°46' W 118°13'.

Length 25 m; draft 3.5 m.

Type: Towing. MMSI: 366988960.

Date/timePositionNaut miles runAvg speedWind from/ knotsBaromVisibWave heightAir tempDewpointWater temp
2017-May-23 18:24N 33°46' W 118°13'0 0.0
2017-May-23 18:00N 33°46' W 118°13'0 0.0
2017-May-23 17:24N 33°46' W 118°13'0 0.0
2017-May-23 17:00N 33°46' W 118°13'0 0.0
2017-May-23 16:30N 33°46' W 118°13'0 0.0
2017-May-23 15:54N 33°46' W 118°13'0 0.0
2017-May-23 15:30N 33°46' W 118°13'0 0.0
2017-May-23 14:48N 33°46' W 118°13'0 0.0
2017-May-23 14:30N 33°46' W 118°13'0 0.0
2017-May-23 13:27N 33°46' W 118°13'0 0.0
2017-May-23 13:00N 33°46' W 118°13'0 0.0
2017-May-23 12:30N 33°46' W 118°13'0 0.0
2017-May-23 11:42N 33°46' W 118°13'0 0.0
2017-May-23 11:30N 33°46' W 118°13'0 0.0
2017-May-23 10:57N 33°46' W 118°13'0 0.0
2017-May-23 10:27N 33°46' W 118°13'0 0.0
2017-May-23 10:00N 33°46' W 118°13'0 0.0
2017-May-23 09:30N 33°46' W 118°13'0 0.0
2017-May-23 09:00N 33°46' W 118°13'0 0.0
2017-May-23 08:30N 33°46' W 118°13'119637424.8
2017-May-23 08:28N 29°44' W 095°17'11962552.7
2017-May-23 08:00N 33°46' W 118°13'1196130525.3
2017-May-23 07:59N 29°44' W 095°15'11962439.0
2017-May-23 07:30N 33°46' W 118°13'0 0.0
2017-May-23 07:00N 33°46' W 118°13'0 0.0
2017-May-23 06:18N 33°46' W 118°13'0 0.0
2017-May-23 06:00N 33°46' W 118°13'0 0.0
2017-May-23 05:24N 33°46' W 118°13'0 0.0
2017-May-23 05:00N 33°46' W 118°13'0 0.0
2017-May-23 04:30N 33°46' W 118°13'0 0.0
2017-May-23 03:36N 33°46' W 118°13'0 0.0
2017-May-23 03:30N 33°46' W 118°13'0 0.0
2017-May-23 02:57N 33°46' W 118°13'0 0.0
2017-May-23 02:30N 33°46' W 118°13'0 0.0
2017-May-23 02:00N 33°46' W 118°13'0 0.0
2017-May-23 00:36N 33°46' W 118°13'0 0.0
2017-May-23 00:30N 33°46' W 118°13'0 0.0
2017-May-23 00:00N 33°46' W 118°13'0 0.0
2017-May-22 23:30N 33°46' W 118°13'0 0.0
2017-May-22 23:00N 33°46' W 118°13'11973871.9
2017-May-22 22:41N 29°43' W 095°15'1 5.2
2017-May-22 22:30N 29°44' W 095°14'1198616057.7
2017-May-22 22:30N 33°46' W 118°13'0 0.0
2017-May-22 22:00N 33°46' W 118°13'1200102845.6
2017-May-22 21:59N 29°45' W 095°11'1 2.8
2017-May-22 21:30N 29°44' W 095°09'120120790.1
2017-May-22 21:27N 33°46' W 118°13'12032702.2
2017-May-22 21:00N 29°44' W 095°07'1203227976.3
2017-May-22 21:00N 33°46' W 118°13'12042422.0
2017-May-22 20:30N 29°46' W 095°05'1204481707.0
2017-May-22 20:30N 33°46' W 118°13'1 1.3
2017-May-22 20:01N 33°45' W 118°13'120215617.2
2017-May-22 19:56N 29°44' W 095°09'12032468.1
2017-May-22 19:27N 33°43' W 118°15'1 2.4
2017-May-22 18:59N 33°43' W 118°14'0 0.1
2017-May-22 18:30N 33°43' W 118°14'1 2.2
2017-May-22 18:00N 33°43' W 118°15'0 0.2
2017-May-22 17:19N 33°43' W 118°15'1 2.9
2017-May-22 17:00N 33°43' W 118°14'2 3.3
2017-May-22 16:24N 33°45' W 118°13'1 3.4
2017-May-22 16:00N 33°46' W 118°13'0 0.1
2017-May-22 15:27N 33°46' W 118°13'0 0.0
2017-May-22 14:57N 33°46' W 118°13'0 0.1
2017-May-22 14:00N 33°46' W 118°13'119744869.3
2017-May-22 13:59N 29°44' W 095°15'3 5.5
2017-May-22 13:25N 29°44' W 095°12'3 7.0
2017-May-22 13:00N 29°44' W 095°09'3 0.8
2017-May-22 08:51N 29°47' W 095°06'0 0.1
2017-May-22 08:30N 29°47' W 095°06'1 2.5
2017-May-22 07:59N 29°45' W 095°06'1 1.3
2017-May-22 07:30N 29°46' W 095°06'0 0.2
2017-May-22 06:52N 29°46' W 095°06'0 0.0
2017-May-22 06:20N 29°46' W 095°06'0 0.0
2017-May-22 04:59N 29°46' W 095°06'0 0.0
2017-May-22 03:46N 29°46' W 095°06'0 0.0
2017-May-22 03:25N 29°46' W 095°06'0 0.0
2017-May-22 02:58N 29°46' W 095°06'0 0.0
2017-May-22 02:20N 29°46' W 095°06'0 0.0
2017-May-22 01:57N 29°46' W 095°06'0 0.0
2017-May-22 01:30N 29°46' W 095°06'0 0.0
2017-May-22 00:59N 29°46' W 095°06'0 0.2
2017-May-22 00:25N 29°46' W 095°06'1 1.4
2017-May-22 00:00N 29°45' W 095°06'1 2.2
2017-May-21 23:30N 29°44' W 095°06'3 4.5
2017-May-21 22:48N 29°45' W 095°10'1 0.6
2017-May-21 21:52N 29°45' W 095°11'0 0.0
2017-May-21 21:30N 29°45' W 095°11'0 0.0
2017-May-21 20:34N 29°45' W 095°11'0 0.0
2017-May-21 20:28N 29°45' W 095°11'0 0.0
2017-May-21 19:16N 29°45' W 095°11'0 0.0
2017-May-21 17:22N 29°45' W 095°11'0 0.0
2017-May-21 14:00N 29°45' W 095°11'0 0.0
2017-May-21 13:30N 29°45' W 095°11'0 1.0
2017-May-21 13:00N 29°45' W 095°10'4 0.2
2017-May-20 19:34N 29°47' W 095°06'0 1.8
2017-May-20 19:30N 29°46' W 095°06'2 4.2
2017-May-20 19:00N 29°45' W 095°04'2 3.3
2017-May-20 18:29N 29°44' W 095°03'0 0.0
2017-May-20 17:59N 29°44' W 095°03'0 0.0
2017-May-20 17:29N 29°44' W 095°03'0 0.0
2017-May-20 16:59N 29°44' W 095°03'0 0.0
2017-May-20 16:29N 29°44' W 095°03'0 0.0
2017-May-20 15:59N 29°44' W 095°03'0 0.0
2017-May-20 15:29N 29°44' W 095°03'0 0.0
2017-May-20 14:59N 29°44' W 095°03'0 0.0
2017-May-20 14:29N 29°44' W 095°03'0 0.0
2017-May-20 13:00N 29°44' W 095°03'0 0.0
2017-May-20 12:30N 29°44' W 095°03'0 0.0
2017-May-20 12:00N 29°44' W 095°03'0 0.0
2017-May-20 11:30N 29°44' W 095°03'0 0.0
2017-May-20 11:00N 29°44' W 095°03'0 0.0
2017-May-20 10:30N 29°44' W 095°03'0 0.0
2017-May-20 10:00N 29°44' W 095°03'0 0.0
2017-May-20 09:30N 29°44' W 095°03'0 0.0
2017-May-20 09:00N 29°44' W 095°03'0 0.0
2017-May-20 08:26N 29°44' W 095°03'0 0.2
2017-May-20 08:00N 29°44' W 095°03'4 4.0
2017-May-20 07:04N 29°47' W 095°06'0 2.1
2017-May-20 07:00N 29°46' W 095°06'2 3.5
2017-May-20 06:30N 29°45' W 095°06'1204713.7
2017-May-20 04:49N 33°46' W 118°13'1 1.4
2017-May-20 04:13N 33°45' W 118°13'0 0.8
2017-May-20 03:58N 33°45' W 118°14'2 3.6
2017-May-20 03:30N 33°44' W 118°12'3 4.1
2017-May-20 02:47N 33°41' W 118°10'1 3.4
2017-May-20 02:31N 33°40' W 118°10'3 6.0
2017-May-20 02:00N 33°37' W 118°12'3 6.3
2017-May-20 01:31N 33°34' W 118°13'3 6.2
2017-May-20 01:01N 33°31' W 118°14'3 6.2
2017-May-20 00:30N 33°28' W 118°15'3 6.2
2017-May-20 00:01N 33°25' W 118°16'3 6.3
2017-May-19 23:30N 33°22' W 118°17'3 6.0
2017-May-19 23:01N 33°19' W 118°18'0 0.6
2017-May-19 22:28N 33°19' W 118°18'0 0.0
2017-May-19 21:28N 33°19' W 118°18'0 0.0
2017-May-19 20:04N 33°19' W 118°18'0 0.0
2017-May-19 19:58N 33°19' W 118°18'0 0.0
2017-May-19 19:28N 33°19' W 118°18'0 0.0
2017-May-19 18:58N 33°19' W 118°18'12059209.3
2017-May-19 18:50N 29°44' W 095°07'12053258.9
2017-May-19 18:28N 33°19' W 118°18'120213520.9
2017-May-19 18:22N 29°45' W 095°10'12023135.3
2017-May-19 17:59N 33°19' W 118°18'1200480049.4
2017-May-19 17:59N 29°43' W 095°13'12002471.2
2017-May-19 17:30N 33°19' W 118°18'3 5.7
2017-May-19 17:00N 33°22' W 118°17'4 7.7
2017-May-19 16:30N 33°26' W 118°16'4 7.6
2017-May-19 15:59N 33°30' W 118°16'4 7.7
2017-May-19 15:30N 33°33' W 118°15'4 7.8
2017-May-19 14:59N 33°37' W 118°14'7 6.9
2017-May-19 14:00N 33°44' W 118°11'3 5.1
2017-May-19 13:31N 33°46' W 118°13'0 0.6
2017-May-19 12:58N 33°46' W 118°13'1196232.0
2017-May-19 07:49N 29°44' W 095°16'0 0.3
2017-May-19 07:30N 29°44' W 095°16'3 5.3
2017-May-19 06:53N 29°44' W 095°12'2 6.3
2017-May-19 06:29N 29°44' W 095°09'4 6.5
2017-May-19 05:56N 29°46' W 095°05'1 0.0
2017-May-18 06:38N 29°45' W 095°06'1 0.3
2017-May-18 01:20N 29°46' W 095°06'0 0.0
2017-May-18 00:59N 29°46' W 095°06'0 0.0
2017-May-18 00:31N 29°46' W 095°06'0 0.0
2017-May-17 17:17N 29°46' W 095°06'0 0.0
2017-May-17 01:08N 29°46' W 095°06'0 1.3
2017-May-17 01:00N 29°47' W 095°06'2 3.2
2017-May-17 00:26N 29°45' W 095°06'5 0.6
2017-May-16 16:10N 29°45' W 095°11'1 3.7
2017-May-16 16:01N 29°45' W 095°11'3 6.6
2017-May-16 15:30N 29°44' W 095°07'3 5.3
2017-May-16 15:01N 29°46' W 095°04'3 6.1
2017-May-16 14:30N 29°44' W 095°02'6 6.4
2017-May-16 13:30N 29°38' W 094°58'2 4.7
2017-May-16 13:00N 29°37' W 094°60'0 0.4
2017-May-16 12:30N 29°37' W 095°00'0 0.0
2017-May-16 12:00N 29°37' W 095°00'0 0.0
2017-May-16 11:30N 29°37' W 095°00'0 0.0
2017-May-16 11:00N 29°37' W 095°00'0 0.0
2017-May-16 10:30N 29°37' W 095°00'0 0.0
2017-May-16 10:00N 29°37' W 095°00'0 0.0
2017-May-16 09:31N 29°37' W 095°00'0 0.0
2017-May-16 09:00N 29°37' W 095°00'0 0.0
2017-May-16 08:30N 29°37' W 095°00'0 0.0
2017-May-16 08:00N 29°37' W 095°00'0 0.0
2017-May-16 07:30N 29°37' W 095°00'0 0.0
2017-May-16 07:00N 29°37' W 095°00'0 0.0
2017-May-16 06:30N 29°37' W 095°00'0 0.0
2017-May-16 06:00N 29°37' W 095°00'0 0.0
2017-May-16 05:30N 29°37' W 095°00'0 0.0
2017-May-16 05:00N 29°37' W 095°00'0 0.0
2017-May-16 04:30N 29°37' W 095°00'0 0.0
2017-May-16 04:00N 29°37' W 095°00'0 0.0
2017-May-16 03:31N 29°37' W 095°00'0 0.0
2017-May-16 03:01N 29°37' W 095°00'0 0.0
2017-May-16 02:30N 29°37' W 095°00'0 0.0
2017-May-16 02:00N 29°37' W 095°00'0 0.0
2017-May-16 01:31N 29°37' W 095°00'0 0.0
2017-May-16 01:00N 29°37' W 095°00'0 0.0
2017-May-16 00:30N 29°37' W 095°00'0 0.0
2017-May-16 00:00N 29°37' W 095°00'0 0.0
2017-May-15 23:30N 29°37' W 095°00'0 0.0
2017-May-15 23:01N 29°37' W 095°00'0 0.0
2017-May-15 22:30N 29°37' W 095°00'0 0.0
2017-May-15 22:00N 29°37' W 095°00'0 0.0
2017-May-15 21:30N 29°37' W 095°00'0 0.0
2017-May-15 21:01N 29°37' W 095°00'0 0.0
2017-May-15 20:30N 29°37' W 095°00'0 0.0
2017-May-15 20:01N 29°37' W 095°00'0 0.0
2017-May-15 19:30N 29°37' W 095°00'1 1.8
2017-May-15 19:00N 29°37' W 095°01'2 4.1
2017-May-15 18:31N 29°37' W 094°59'3 4.3
2017-May-15 17:54N 29°39' W 094°58'2 5.6
2017-May-15 17:30N 29°41' W 094°59'7 5.5
2017-May-15 16:15N 29°46' W 095°06'1 0.4
2017-May-15 13:59N 29°47' W 095°06'0 0.0
2017-May-15 08:34N 29°47' W 095°06'0 0.2
2017-May-15 08:30N 29°47' W 095°06'1 1.3
2017-May-15 08:00N 29°46' W 095°06'2 4.3
2017-May-15 07:30N 29°45' W 095°04'1 1.0
2017-May-15 06:14N 29°44' W 095°03'0 0.0
2017-May-15 05:53N 29°44' W 095°03'0 0.0
2017-May-15 05:14N 29°44' W 095°03'0 0.0
2017-May-14 16:32N 29°44' W 095°03'1 2.5
2017-May-14 16:06N 29°45' W 095°04'2 6.2
2017-May-14 15:49N 29°46' W 095°05'1204349.4
2017-May-14 12:22N 33°46' W 118°13'0 0.0
2017-May-14 11:58N 33°46' W 118°13'0 0.0
2017-May-14 11:22N 33°46' W 118°13'0 0.0
2017-May-14 10:58N 33°46' W 118°13'0 0.0
2017-May-14 10:28N 33°46' W 118°13'0 0.0
2017-May-14 09:58N 33°46' W 118°13'0 0.0
2017-May-14 09:28N 33°46' W 118°13'0 0.0
2017-May-14 08:58N 33°46' W 118°13'0 0.0
2017-May-14 08:28N 33°46' W 118°13'0 0.0
2017-May-14 07:58N 33°46' W 118°13'0 0.0
2017-May-14 07:28N 33°46' W 118°13'0 0.0
2017-May-14 06:58N 33°46' W 118°13'0 0.0
2017-May-14 06:19N 33°46' W 118°13'0 0.0
2017-May-14 05:58N 33°46' W 118°13'0 0.0
2017-May-14 05:28N 33°46' W 118°13'0 0.0
2017-May-14 04:58N 33°46' W 118°13'0 0.0
2017-May-14 04:25N 33°46' W 118°13'0 0.0
2017-May-14 03:58N 33°46' W 118°13'0 0.0
2017-May-14 03:28N 33°46' W 118°13'0 0.0
2017-May-14 02:58N 33°46' W 118°13'0 0.0
2017-May-14 02:28N 33°46' W 118°13'0 0.0
2017-May-14 01:58N 33°46' W 118°13'0 0.0
2017-May-14 01:28N 33°46' W 118°13'0 0.0
2017-May-14 00:58N 33°46' W 118°13'0 0.0
2017-May-14 00:28N 33°46' W 118°13'0 0.0
2017-May-13 23:58N 33°46' W 118°13'0 0.0
2017-May-13 23:28N 33°46' W 118°13'0 0.0
2017-May-13 22:58N 33°46' W 118°13'0 0.0
2017-May-13 21:40N 33°46' W 118°13'0 0.0
2017-May-13 21:22N 33°46' W 118°13'120323672.5
2017-May-13 21:19N 29°47' W 095°06'12033427.3
2017-May-13 20:58N 33°46' W 118°13'1204123854.3
2017-May-13 20:57N 29°46' W 095°05'12042456.0
2017-May-13 20:28N 33°46' W 118°13'12041401.2
2017-May-13 19:36N 29°45' W 095°06'0 0.1
2017-May-13 19:30N 29°45' W 095°06'0 0.0
2017-May-13 18:42N 29°45' W 095°06'  

Dump ship's entire track history